KCWA

Central Wisconsin Airport

Mosinee, Wisconsin, USA
KCWA 221138Z 2212/2312 24002KT P6SM FEW150 FM221400 20007KT P6SM SKC FM222000 20010G15KT P6SM SKC FM222100 19004KT P6SM SCT250 FM231000 15002KT 6SM BR SCT060
Issued Valid From Valid To
Sep-22 @ 11:38 UTC
(3 hours ago)
Sep-22 @ 12:00 UTC
(3 hours ago)
Sep-23 @ 12:00 UTC
(in 21 hours)
to
to
to
to
to
KCWA 221138Z 2212/2312 24002KT P6SM FEW150 FM221400 20007KT P6SM SKC FM222000 20010G15KT P6SM SKC FM222100 19004KT P6SM SCT250 FM231000 15002KT 6SM BR SCT060
Issued Sep-22 @ 11:38 UTC
(3 hours ago)
Valid From Sep-22 @ 12:00 UTC
(3 hours ago)
Valid To Sep-23 @ 12:00 UTC
(in 21 hours)
-
-
-
-
-